createdAt,value
2018-07-19T00:00:53.699Z,90.29
2018-07-19T00:02:02.351Z,90.77
2018-07-19T00:03:11.004Z,90.86
2018-07-19T00:04:19.654Z,91.15
2018-07-19T00:05:28.302Z,91.34
2018-07-19T00:06:37.223Z,91.05
2018-07-19T00:07:45.878Z,92.16
2018-07-19T00:08:54.810Z,91.58
2018-07-19T00:10:03.730Z,91.34
2018-07-19T00:11:12.365Z,91.39
2018-07-19T00:12:21.018Z,90.91
2018-07-19T00:13:29.661Z,91.3
2018-07-19T00:14:38.320Z,91.39
2018-07-19T00:15:46.955Z,90.82
2018-07-19T00:16:55.895Z,91.3
2018-07-19T00:18:04.542Z,91.87
2018-07-19T00:19:14.067Z,92.16
2018-07-19T00:20:22.716Z,92.16
2018-07-19T00:21:31.355Z,92.16
2018-07-19T00:22:40.272Z,92.06
2018-07-19T00:23:49.186Z,92.06
2018-07-19T00:24:58.124Z,92.06
2018-07-19T00:26:06.762Z,92.25
2018-07-19T00:27:15.418Z,92.16
2018-07-19T00:28:24.059Z,91.97
2018-07-19T00:29:32.986Z,92.44
2018-07-19T00:30:41.898Z,92.06
2018-07-19T00:31:50.545Z,92.83
2018-07-19T00:32:59.188Z,92.25
2018-07-19T00:34:07.844Z,92.35
2018-07-19T00:35:16.486Z,92.11
2018-07-19T00:36:25.126Z,92.21
2018-07-19T00:37:33.769Z,91.73
2018-07-19T00:38:42.412Z,92.78
2018-07-19T00:39:51.064Z,92.78
2018-07-19T00:40:59.704Z,92.69
2018-07-19T00:42:08.354Z,92.78
2018-07-19T00:43:16.990Z,92.88
2018-07-19T00:44:25.645Z,92.97
2018-07-19T00:45:34.563Z,92.59
2018-07-19T00:46:43.214Z,92.78
2018-07-19T00:47:51.853Z,92.59
2018-07-19T00:49:00.507Z,92.97
2018-07-19T00:50:09.150Z,92.78
2018-07-19T00:51:17.799Z,93.16
2018-07-19T00:52:26.434Z,93.16
2018-07-19T00:53:35.082Z,92.69
2018-07-19T00:54:43.730Z,92.78
2018-07-19T00:55:52.374Z,92.97
2018-07-19T00:57:01.021Z,92.59
2018-07-19T00:58:09.657Z,92.97
2018-07-19T00:59:18.307Z,92.59
2018-07-19T01:00:26.947Z,92.59
2018-07-19T01:01:35.605Z,93.55
2018-07-19T01:02:44.244Z,93.55
2018-07-19T01:03:52.892Z,94.12
2018-07-19T01:05:01.533Z,93.93
2018-07-19T01:06:10.190Z,94.31
2018-07-19T01:07:18.824Z,93.74
2018-07-19T01:08:27.470Z,93.64
2018-07-19T01:09:36.113Z,93.74
2018-07-19T01:10:45.048Z,93.55
2018-07-19T01:11:53.690Z,93.45
2018-07-19T01:13:02.334Z,93.45
2018-07-19T01:14:11.583Z,93.69
2018-07-19T01:15:20.225Z,94.26
2018-07-19T01:16:28.879Z,94.07
2018-07-19T01:17:37.524Z,93.69
2018-07-19T01:18:46.731Z,94.55
2018-07-19T01:19:55.367Z,94.65
2018-07-19T01:21:04.020Z,94.55
2018-07-19T01:22:12.661Z,94.55
2018-07-19T01:23:21.317Z,94.93
2018-07-19T01:24:29.954Z,95.98
2018-07-19T01:25:38.604Z,95.7
2018-07-19T01:26:47.246Z,95.89
2018-07-19T01:27:55.897Z,96.18
2018-07-19T01:29:04.537Z,95.7
2018-07-19T01:30:13.189Z,96.27
2018-07-19T01:31:21.833Z,96.08
2018-07-19T01:32:30.481Z,96.18
2018-07-19T01:33:39.127Z,96.08
2018-07-19T01:34:47.769Z,95.7
2018-07-19T01:35:56.453Z,95.89
2018-07-19T01:37:05.063Z,96.08
2018-07-19T01:38:13.990Z,95.7
2018-07-19T01:39:22.630Z,96.08
2018-07-19T01:40:31.275Z,95.79
2018-07-19T01:41:39.921Z,96.47
2018-07-19T01:42:48.570Z,96.37
2018-07-19T01:43:57.205Z,96.47
2018-07-19T01:45:06.135Z,96.84
2018-07-19T01:46:15.614Z,96.56
2018-07-19T01:47:24.543Z,96.66
2018-07-19T01:48:33.185Z,96.84
2018-07-19T01:49:41.829Z,96.7
2018-07-19T01:50:50.473Z,96.56
2018-07-19T01:51:59.936Z,96.75
2018-07-19T01:53:08.584Z,96.27
2018-07-19T01:54:17.506Z,96.47
2018-07-19T01:55:26.153Z,97.13
2018-07-19T01:56:35.571Z,96.8
2018-07-19T01:57:44.220Z,97.04
2018-07-19T01:58:53.142Z,97.18
2018-07-19T02:00:01.829Z,97.56
2018-07-19T02:01:12.457Z,97.94
2018-07-19T02:02:21.107Z,97.75
2018-07-19T02:03:29.749Z,97.18
2018-07-19T02:04:38.683Z,97.28
2018-07-19T02:05:47.324Z,97.56
2018-07-19T02:06:55.974Z,97.85
2018-07-19T02:08:04.621Z,97.66
2018-07-19T02:09:13.538Z,97.37
2018-07-19T02:10:22.186Z,97.94
2018-07-19T02:11:30.826Z,98.13
2018-07-19T02:12:39.470Z,98.23
2018-07-19T02:13:48.117Z,97.47
2018-07-19T02:14:56.774Z,97.94
2018-07-19T02:16:05.410Z,98.23
2018-07-19T02:17:14.055Z,98.13
2018-07-19T02:18:22.699Z,97.85
2018-07-19T02:19:31.348Z,97.75
2018-07-19T02:20:39.990Z,97.85
2018-07-19T02:21:48.912Z,97.94
2018-07-19T02:22:57.556Z,97.94
2018-07-19T02:24:06.199Z,97.85
2018-07-19T02:25:14.846Z,97.85
2018-07-19T02:26:23.489Z,98.23
2018-07-19T02:27:32.135Z,98.13
2018-07-19T02:28:40.781Z,98.71
2018-07-19T02:29:49.420Z,97.75
2018-07-19T02:30:58.063Z,98.08
2018-07-19T02:32:06.718Z,98.18
2018-07-19T02:33:15.356Z,97.99
2018-07-19T02:34:23.996Z,97.89
2018-07-19T02:35:32.641Z,98.47
2018-07-19T02:36:41.283Z,98.75
2018-07-19T02:37:49.935Z,97.99
2018-07-19T02:38:59.363Z,98.08
2018-07-19T02:40:08.012Z,98.18
2018-07-19T02:41:16.653Z,98.18
2018-07-19T02:42:25.303Z,98.08
2018-07-19T02:43:34.705Z,97.71
2018-07-19T02:44:43.352Z,97.99
2018-07-19T02:45:51.991Z,98.94
2018-07-19T02:47:00.657Z,98.57
2018-07-19T02:48:09.572Z,98.66
2018-07-19T02:49:18.219Z,98.85
2018-07-19T02:50:26.861Z,99.33
2018-07-19T02:51:35.501Z,98.75
2018-07-19T02:52:44.151Z,98.75
2018-07-19T02:53:52.794Z,98.75
2018-07-19T02:55:01.439Z,99.33
2018-07-19T02:56:10.078Z,99.23
2018-07-19T02:57:18.726Z,98.94
2018-07-19T02:58:27.367Z,99.14
2018-07-19T02:59:36.013Z,99.23
2018-07-19T03:00:44.654Z,99.8
2018-07-19T03:01:53.302Z,99.33
2018-07-19T03:03:02.224Z,99.23
2018-07-19T03:04:10.865Z,99.23
2018-07-19T03:05:19.512Z,99.14
2018-07-19T03:06:28.189Z,99.99
2018-07-19T03:07:36.904Z,99.52
2018-07-19T03:08:45.531Z,99.99
2018-07-19T03:09:54.180Z,99.9
2018-07-19T03:11:02.821Z,99.9
2018-07-19T03:12:11.462Z,99.99
2018-07-19T03:13:20.106Z,99.99
2018-07-19T03:14:28.756Z,99.99
2018-07-19T03:15:37.672Z,99.99
2018-07-19T03:16:46.319Z,99.99
2018-07-19T03:17:54.966Z,99.99
2018-07-19T03:19:04.397Z,99.99
2018-07-19T03:20:13.042Z,99.99
2018-07-19T03:21:21.686Z,99.99
2018-07-19T03:22:30.329Z,99.99
2018-07-19T03:23:39.743Z,99.99
2018-07-19T03:24:48.398Z,99.99
2018-07-19T03:25:57.358Z,99.99
2018-07-19T03:27:06.007Z,99.99
2018-07-19T03:28:14.640Z,99.99
2018-07-19T03:29:23.294Z,99.99
2018-07-19T03:30:31.935Z,99.99
2018-07-19T03:31:40.884Z,99.99
2018-07-19T03:32:49.799Z,99.99
2018-07-19T03:33:58.450Z,99.99
2018-07-19T03:35:07.914Z,99.99
2018-07-19T03:36:16.509Z,99.99
2018-07-19T03:37:25.145Z,99.99
2018-07-19T03:38:33.790Z,99.99
2018-07-19T03:39:42.442Z,99.99
2018-07-19T03:40:51.084Z,99.99
2018-07-19T03:41:59.734Z,99.99
2018-07-19T03:43:08.368Z,99.99
2018-07-19T03:44:17.015Z,99.99
2018-07-19T03:45:25.654Z,99.99
2018-07-19T03:46:34.584Z,99.99
2018-07-19T03:47:43.218Z,99.99
2018-07-19T03:48:51.868Z,99.99
2018-07-19T03:50:00.501Z,99.99
2018-07-19T03:51:09.154Z,99.99
2018-07-19T03:52:17.793Z,99.99
2018-07-19T03:53:26.459Z,99.99
2018-07-19T03:54:35.081Z,99.99
2018-07-19T03:55:43.734Z,99.99
2018-07-19T03:56:52.653Z,99.99
2018-07-19T03:58:01.296Z,99.99
2018-07-19T03:59:09.936Z,99.99
2018-07-19T04:00:18.580Z,99.99
2018-07-19T04:01:27.236Z,99.99
2018-07-19T04:02:35.877Z,99.99
2018-07-19T04:03:44.525Z,99.99
2018-07-19T04:04:53.161Z,99.99
2018-07-19T04:06:01.815Z,99.99
2018-07-19T04:07:10.454Z,99.99
2018-07-19T04:08:19.103Z,99.99
2018-07-19T04:09:27.739Z,99.99
2018-07-19T04:10:36.393Z,99.99
2018-07-19T04:11:45.037Z,99.99
2018-07-19T04:12:53.683Z,99.99
2018-07-19T04:14:02.321Z,99.99
2018-07-19T04:15:10.968Z,99.99
2018-07-19T04:16:19.895Z,99.99
2018-07-19T04:17:28.546Z,99.99
2018-07-19T04:18:38.043Z,99.99
2018-07-19T04:19:46.679Z,99.99
2018-07-19T04:20:55.325Z,99.99
2018-07-19T04:22:04.244Z,99.99
2018-07-19T04:23:13.670Z,99.99
2018-07-19T04:24:22.596Z,99.99
2018-07-19T04:25:31.240Z,99.99
2018-07-19T04:26:39.884Z,99.99
2018-07-19T04:27:48.534Z,99.99
2018-07-19T04:28:57.172Z,99.99
2018-07-19T04:30:06.568Z,99.99
2018-07-19T04:31:15.210Z,99.99
2018-07-19T04:32:23.873Z,99.99
2018-07-19T04:33:32.999Z,99.99
2018-07-19T04:34:41.642Z,99.99
2018-07-19T04:35:50.283Z,99.99
2018-07-19T04:36:58.924Z,99.99
2018-07-19T04:38:07.627Z,99.99
2018-07-19T04:39:16.216Z,99.99
2018-07-19T04:40:24.860Z,99.99
2018-07-19T04:41:33.498Z,99.99
2018-07-19T04:42:42.148Z,99.99
2018-07-19T04:43:50.790Z,99.99
2018-07-19T04:44:59.438Z,99.99
2018-07-19T04:46:08.077Z,99.99
2018-07-19T04:47:16.725Z,99.99
2018-07-19T04:48:25.366Z,99.99
2018-07-19T04:49:34.022Z,99.99
2018-07-19T04:50:43.252Z,99.99
2018-07-19T04:51:51.902Z,99.99
2018-07-19T04:53:00.541Z,99.99
2018-07-19T04:54:09.188Z,99.99
2018-07-19T04:55:17.835Z,99.99
2018-07-19T04:56:26.476Z,99.99
2018-07-19T04:57:35.121Z,99.99
2018-07-19T04:58:43.769Z,99.99
2018-07-19T04:59:52.416Z,99.99
2018-07-19T05:01:01.056Z,99.99
2018-07-19T05:02:10.010Z,99.99
2018-07-19T05:03:18.618Z,99.99
2018-07-19T05:04:27.266Z,99.99
2018-07-19T05:05:35.906Z,99.99
2018-07-19T05:06:44.553Z,99.99
2018-07-19T05:07:53.195Z,99.99
2018-07-19T05:09:01.846Z,99.99
2018-07-19T05:10:10.483Z,99.99
2018-07-19T05:11:19.121Z,99.99
2018-07-19T05:12:27.763Z,99.99
2018-07-19T05:13:36.406Z,99.99
2018-07-19T05:14:45.055Z,99.99
2018-07-19T05:15:53.701Z,99.99
2018-07-19T05:17:02.346Z,99.99
2018-07-19T05:18:10.987Z,99.99
2018-07-19T05:19:20.552Z,99.99
2018-07-19T05:20:29.190Z,99.99
2018-07-19T05:21:38.124Z,99.99
2018-07-19T05:22:46.757Z,99.99
2018-07-19T05:23:55.408Z,99.99
2018-07-19T05:25:04.052Z,99.99
2018-07-19T05:26:12.698Z,99.99
2018-07-19T05:27:21.335Z,99.99
2018-07-19T05:28:29.986Z,99.99
2018-07-19T05:29:38.633Z,99.99
2018-07-19T05:30:47.280Z,99.99
2018-07-19T05:31:55.925Z,99.99
2018-07-19T05:33:04.562Z,99.99
2018-07-19T05:34:13.212Z,99.99
2018-07-19T05:35:21.853Z,99.99
2018-07-19T05:36:30.509Z,99.99
2018-07-19T05:37:39.147Z,99.99
2018-07-19T05:38:47.797Z,99.99
2018-07-19T05:39:56.438Z,99.76
2018-07-19T05:41:05.096Z,99
2018-07-19T05:42:13.771Z,98.95
2018-07-19T05:43:22.375Z,98.66
2018-07-19T05:44:31.018Z,97.42
2018-07-19T05:45:39.674Z,98
2018-07-19T05:46:48.314Z,96.99
2018-07-19T05:47:56.956Z,96.89
2018-07-19T05:49:05.599Z,94.98
2018-07-19T05:50:14.519Z,94.69
2018-07-19T05:51:23.175Z,94.02
2018-07-19T05:52:32.554Z,94.64
2018-07-19T05:53:41.203Z,94.64
2018-07-19T05:54:49.839Z,93.98
2018-07-19T05:55:58.494Z,93.88
2018-07-19T05:57:07.135Z,91.96
2018-07-19T05:58:15.859Z,92.25
2018-07-19T05:59:24.774Z,91.72
2018-07-19T06:00:33.430Z,92.01
2018-07-19T06:01:42.075Z,91.24
2018-07-19T06:02:50.723Z,91.34
2018-07-19T06:03:59.364Z,91.34
2018-07-19T06:05:08.012Z,90.86
2018-07-19T06:06:16.664Z,90.71
2018-07-19T06:07:26.149Z,90.76
2018-07-19T06:08:34.798Z,90.14
2018-07-19T06:09:43.477Z,89.94
2018-07-19T06:10:52.498Z,89.37
2018-07-19T06:12:01.144Z,89.08
2018-07-19T06:13:09.800Z,89.27
2018-07-19T06:14:18.438Z,88.02
2018-07-19T06:15:27.089Z,87.64
2018-07-19T06:16:36.008Z,87.78
2018-07-19T06:17:44.655Z,87.68
2018-07-19T06:18:53.311Z,87.78
2018-07-19T06:20:01.956Z,87.01
2018-07-19T06:21:10.604Z,86.44
2018-07-19T06:22:19.245Z,86.25
2018-07-19T06:23:27.895Z,86.44
2018-07-19T06:24:36.546Z,86.44
2018-07-19T06:25:45.195Z,85.24
2018-07-19T06:26:53.842Z,85.42
2018-07-19T06:28:02.765Z,84.37
2018-07-19T06:29:11.412Z,83.41
2018-07-19T06:30:20.052Z,82.64
2018-07-19T06:31:29.066Z,80.96
2018-07-19T06:32:37.684Z,80.19
2018-07-19T06:33:46.336Z,80.09
2018-07-19T06:34:55.267Z,80.38
2018-07-19T06:36:03.926Z,79.65
2018-07-19T06:37:12.861Z,79.61
2018-07-19T06:38:21.514Z,78.88
2018-07-19T06:39:30.159Z,78.21
2018-07-19T06:40:38.815Z,77.83
2018-07-19T06:41:47.465Z,77.25
2018-07-19T06:42:56.403Z,76.96
2018-07-19T06:44:05.050Z,77.29
2018-07-19T06:45:13.696Z,74.69
2018-07-19T06:46:22.352Z,74.5
2018-07-19T06:47:30.997Z,76.9
2018-07-19T06:48:39.654Z,76.61
2018-07-19T06:49:48.293Z,76.81
2018-07-19T06:50:56.949Z,76.9
2018-07-19T06:52:06.335Z,75.56
2018-07-19T06:53:14.987Z,75.17
2018-07-19T06:54:23.911Z,74.02
2018-07-19T06:55:32.569Z,75.46
2018-07-19T06:56:41.215Z,74.98
2018-07-19T06:57:49.867Z,72.42
2018-07-19T06:58:58.505Z,72.32
2018-07-19T07:00:07.161Z,72.71
2018-07-19T07:01:15.814Z,72.61
2018-07-19T07:02:24.465Z,72.32
2018-07-19T07:03:33.167Z,73.77
2018-07-19T07:04:42.145Z,74.25
2018-07-19T07:05:50.798Z,74.34
2018-07-19T07:06:59.441Z,74.63
2018-07-19T07:08:08.099Z,73.77
2018-07-19T07:09:16.739Z,74.73
2018-07-19T07:10:25.673Z,74.82
2018-07-19T07:11:34.598Z,74.34
2018-07-19T07:12:43.256Z,73.71
2018-07-19T07:13:51.896Z,73.8
2018-07-19T07:15:00.608Z,74.19
2018-07-19T07:16:09.192Z,73.51
2018-07-19T07:17:18.585Z,72.01
2018-07-19T07:18:27.232Z,71.04
2018-07-19T07:19:36.158Z,68.16
2018-07-19T07:20:44.805Z,66.91
2018-07-19T07:21:53.450Z,66.81
2018-07-19T07:23:02.104Z,65.94
2018-07-19T07:24:10.752Z,65.56
2018-07-19T07:25:19.396Z,66.33
2018-07-19T07:26:28.041Z,66.42
2018-07-19T07:27:36.693Z,65.17
2018-07-19T07:28:45.343Z,65.4
2018-07-19T07:29:53.991Z,65.3
2018-07-19T07:31:02.635Z,67.71
2018-07-19T07:32:11.293Z,69.06
2018-07-19T07:33:19.936Z,70.12
2018-07-19T07:34:29.399Z,68.68
2018-07-19T07:35:38.044Z,68.68
2018-07-19T07:36:46.698Z,68.23
2018-07-19T07:37:55.349Z,65.81
2018-07-19T07:39:04.121Z,64.86
2018-07-19T07:40:13.720Z,65.14
2018-07-19T07:41:22.662Z,60.23
2018-07-19T07:42:31.819Z,59.84
2018-07-19T07:43:40.470Z,60.52
2018-07-19T07:44:49.408Z,60.42
2018-07-19T07:45:58.055Z,59.84
2018-07-19T07:47:07.265Z,60.06
2018-07-19T07:48:16.712Z,59.97
2018-07-19T07:49:25.375Z,59.39
2018-07-19T07:50:34.015Z,60.16
2018-07-19T07:51:42.664Z,58.94
2018-07-19T07:52:51.312Z,58.07
2018-07-19T07:53:59.969Z,57.49
2018-07-19T07:55:08.615Z,56.43
2018-07-19T07:56:17.262Z,56.52
2018-07-19T07:57:25.914Z,56.24
2018-07-19T07:58:34.562Z,56.91
2018-07-19T07:59:43.213Z,57.49
2018-07-19T08:00:51.864Z,57.2
2018-07-19T08:02:00.805Z,56.26
2018-07-19T08:03:09.451Z,56.74
2018-07-19T08:04:18.393Z,56.26
2018-07-19T08:05:27.039Z,57.62
2018-07-19T08:06:35.691Z,58.97
2018-07-19T08:07:44.337Z,56.84
2018-07-19T08:08:53.030Z,55.78
2018-07-19T08:10:02.478Z,55.2
2018-07-19T08:11:11.133Z,55.78
2018-07-19T08:12:19.774Z,56
2018-07-19T08:13:28.425Z,56.77
2018-07-19T08:14:37.074Z,57.84
2018-07-19T08:15:46.071Z,56.51
2018-07-19T08:16:54.679Z,54
2018-07-19T08:18:03.338Z,51.97
2018-07-19T08:19:12.762Z,51.97
2018-07-19T08:20:21.689Z,52.26
2018-07-19T08:21:30.331Z,52.94
2018-07-19T08:22:39.359Z,51.68
2018-07-19T08:23:48.010Z,51.87
2018-07-19T08:24:56.663Z,52.55
2018-07-19T08:26:05.304Z,52.36
2018-07-19T08:27:13.966Z,52.19
2018-07-19T08:28:22.615Z,51.61
2018-07-19T08:29:31.265Z,50.65
2018-07-19T08:30:39.907Z,51.13
2018-07-19T08:31:48.562Z,51.42
2018-07-19T08:32:57.249Z,52.77
2018-07-19T08:34:05.875Z,53.83
2018-07-19T08:35:14.529Z,52
2018-07-19T08:36:23.174Z,51.42
2018-07-19T08:37:31.829Z,51.42
2018-07-19T08:38:40.477Z,52.39
2018-07-19T08:39:49.141Z,51.23
2018-07-19T08:40:58.058Z,51.61
2018-07-19T08:42:06.715Z,53.25
2018-07-19T08:43:15.362Z,53.55
2018-07-19T08:44:24.028Z,53.74
2018-07-19T08:45:32.669Z,53.35
2018-07-19T08:46:41.322Z,51.93
2018-07-19T08:47:49.971Z,51.81
2018-07-19T08:48:58.640Z,51.42
2018-07-19T08:50:07.561Z,51.93
2018-07-19T08:51:17.131Z,52.58
2018-07-19T08:52:25.778Z,52.89
2018-07-19T08:53:34.430Z,52.12
2018-07-19T08:54:43.089Z,51.35
2018-07-19T08:55:51.731Z,51.73
2018-07-19T08:57:00.389Z,51.44
2018-07-19T08:58:09.033Z,52.24
2018-07-19T08:59:17.989Z,53.21
2018-07-19T09:00:26.933Z,51.08
2018-07-19T09:01:35.873Z,50.79
2018-07-19T09:02:45.445Z,50.7
2018-07-19T09:03:54.388Z,49.92
2018-07-19T09:05:03.038Z,50.7
2018-07-19T09:06:11.972Z,50.4
2018-07-19T09:07:20.614Z,50.89
2018-07-19T09:08:29.268Z,51.25
2018-07-19T09:09:37.965Z,49.8
2018-07-19T09:10:46.583Z,50.48
2018-07-19T09:11:55.239Z,49.9
2018-07-19T09:13:04.154Z,50.86
2018-07-19T09:14:12.809Z,51.35
2018-07-19T09:15:21.462Z,49.9
2018-07-19T09:16:30.119Z,49.7
2018-07-19T09:17:38.768Z,50.21
2018-07-19T09:18:47.424Z,50.5
2018-07-19T09:19:56.685Z,50.6
2018-07-19T09:21:05.346Z,50.4
2018-07-19T09:22:13.992Z,50.6
2018-07-19T09:23:22.652Z,50.21
2018-07-19T09:24:31.302Z,48.2
2018-07-19T09:25:39.958Z,47.81
2018-07-19T09:26:48.608Z,50.33
2018-07-19T09:27:57.534Z,51.3
2018-07-19T09:29:06.461Z,50.43
2018-07-19T09:30:15.111Z,50.62
2018-07-19T09:31:24.061Z,49.92
2018-07-19T09:32:33.469Z,50.31
2018-07-19T09:33:42.815Z,50.5
2018-07-19T09:34:51.463Z,50.98
2018-07-19T09:36:00.118Z,54.08
2018-07-19T09:37:08.762Z,50.89
2018-07-19T09:38:17.447Z,49.15
2018-07-19T09:39:26.065Z,48.37
2018-07-19T09:40:34.722Z,49.63
2018-07-19T09:41:43.404Z,49.82
2018-07-19T09:42:52.390Z,49.65
2018-07-19T09:44:01.327Z,49.27
2018-07-19T09:45:09.984Z,49.95
2018-07-19T09:46:18.635Z,48.88
2018-07-19T09:47:27.290Z,48.32
2018-07-19T09:48:35.942Z,48.61
2018-07-19T09:49:44.591Z,49
2018-07-19T09:50:53.245Z,47.91
2018-07-19T09:52:02.171Z,48.88
2018-07-19T09:53:10.828Z,49.85
2018-07-19T09:54:19.475Z,50.24
2018-07-19T09:55:28.406Z,51.13
2018-07-19T09:56:37.881Z,51.1
2018-07-19T09:57:47.504Z,49.19
2018-07-19T09:58:56.154Z,48.81
2018-07-19T10:00:05.089Z,47.55
2018-07-19T10:01:13.742Z,47.19
2018-07-19T10:02:22.392Z,46.99
2018-07-19T10:03:31.049Z,47.09
2018-07-19T10:04:39.703Z,46.6
2018-07-19T10:05:48.386Z,46.7
2018-07-19T10:06:57.605Z,46.22
2018-07-19T10:08:06.262Z,47.5
2018-07-19T10:09:15.912Z,47.28
2018-07-19T10:10:24.571Z,47.98
2018-07-19T10:11:33.492Z,47.67
2018-07-19T10:12:42.445Z,46.53
2018-07-19T10:13:51.099Z,46.92
2018-07-19T10:15:00.553Z,46.53
2018-07-19T10:16:09.209Z,47.02
2018-07-19T10:17:17.884Z,46.62
2018-07-19T10:18:26.514Z,45.65
2018-07-19T10:19:35.165Z,46.33
2018-07-19T10:20:43.879Z,46.62
2018-07-19T10:21:52.476Z,47.02
2018-07-19T10:23:01.128Z,47.02
2018-07-19T10:24:09.781Z,46.53
2018-07-19T10:25:18.434Z,46.24
2018-07-19T10:26:27.090Z,46.62
2018-07-19T10:27:35.743Z,46.62
2018-07-19T10:28:44.443Z,46.53
2018-07-19T10:29:53.045Z,47.11
2018-07-19T10:31:01.704Z,50.12
2018-07-19T10:32:10.504Z,49.24
2018-07-19T10:33:19.534Z,49.05
2018-07-19T10:34:28.263Z,48.27
2018-07-19T10:35:36.839Z,47.6
2018-07-19T10:36:45.489Z,46.82
2018-07-19T10:37:54.147Z,46.72
2018-07-19T10:39:02.798Z,47.2
2018-07-19T10:40:11.450Z,47.5
2018-07-19T10:41:20.104Z,47.69
2018-07-19T10:42:28.767Z,48.76
2018-07-19T10:43:38.247Z,48.97
2018-07-19T10:44:46.895Z,48.88
2018-07-19T10:45:55.573Z,48.59
2018-07-19T10:47:04.200Z,48.97
2018-07-19T10:48:12.862Z,47.45
2018-07-19T10:49:21.508Z,46.77
2018-07-19T10:50:30.163Z,47.06
2018-07-19T10:51:38.827Z,44.24
2018-07-19T10:52:47.472Z,44.24
2018-07-19T10:53:56.119Z,43.66
2018-07-19T10:55:04.775Z,44.05
2018-07-19T10:56:13.430Z,44.24
2018-07-19T10:57:22.138Z,43.76
2018-07-19T10:58:30.740Z,43.86
2018-07-19T10:59:39.392Z,43.01
2018-07-19T11:00:48.044Z,42.91
2018-07-19T11:01:56.699Z,42.13
2018-07-19T11:03:05.360Z,42.61
2018-07-19T11:04:14.013Z,42.54
2018-07-19T11:05:22.666Z,41.86
2018-07-19T11:06:31.313Z,42.15
2018-07-19T11:07:39.970Z,42.25
2018-07-19T11:08:48.624Z,42.25
2018-07-19T11:09:57.379Z,42.15
2018-07-19T11:11:06.381Z,41.55
2018-07-19T11:12:15.046Z,41.84
2018-07-19T11:13:23.697Z,42.5
2018-07-19T11:14:32.357Z,42.69
2018-07-19T11:15:41.004Z,42.52
2018-07-19T11:16:49.661Z,43.68
2018-07-19T11:17:58.319Z,44.65
2018-07-19T11:19:06.974Z,44
2018-07-19T11:20:15.631Z,41.67
2018-07-19T11:21:24.274Z,41.28
2018-07-19T11:22:32.939Z,41.18
2018-07-19T11:23:41.582Z,41.67
2018-07-19T11:24:50.250Z,41.74
2018-07-19T11:25:58.893Z,41.47
2018-07-19T11:27:07.551Z,41.67
2018-07-19T11:28:16.199Z,40.79
2018-07-19T11:29:24.866Z,41.57
2018-07-19T11:30:33.516Z,40.42
2018-07-19T11:31:42.171Z,40.52
2018-07-19T11:32:50.824Z,41.2
2018-07-19T11:33:59.489Z,40.72
2018-07-19T11:35:08.143Z,40.5
2018-07-19T11:36:17.066Z,40.79
2018-07-19T11:37:25.717Z,41.18
2018-07-19T11:38:34.407Z,40.99
2018-07-19T11:39:43.031Z,41.59
2018-07-19T11:40:51.942Z,41.57
2018-07-19T11:42:00.603Z,42.05
2018-07-19T11:43:09.246Z,42.74
2018-07-19T11:44:17.910Z,42.35
2018-07-19T11:45:26.634Z,42.71
2018-07-19T11:46:35.981Z,43.3
2018-07-19T11:47:44.626Z,43.59
2018-07-19T11:48:53.292Z,44.46
2018-07-19T11:50:02.024Z,44.07
2018-07-19T11:51:10.604Z,43.78
2018-07-19T11:52:19.516Z,43.01
2018-07-19T11:53:28.169Z,42.23
2018-07-19T11:54:37.092Z,43.49
2018-07-19T11:55:45.749Z,42.61
2018-07-19T11:56:54.410Z,42.13
2018-07-19T11:58:03.315Z,42.33
2018-07-19T11:59:11.974Z,41.18
2018-07-19T12:00:20.624Z,41.28
2018-07-19T12:01:29.287Z,40.41
2018-07-19T12:02:37.932Z,39.92
2018-07-19T12:03:46.591Z,40.31
2018-07-19T12:04:55.243Z,40.52
2018-07-19T12:06:04.174Z,40.62
2018-07-19T12:07:13.081Z,39.75
2018-07-19T12:08:21.746Z,39.55
2018-07-19T12:09:30.400Z,39.28
2018-07-19T12:10:39.058Z,39.08
2018-07-19T12:11:47.712Z,39.28
2018-07-19T12:12:56.366Z,39.08
2018-07-19T12:14:05.023Z,39.67
2018-07-19T12:15:13.935Z,39.76
2018-07-19T12:16:22.598Z,39.29
2018-07-19T12:17:31.251Z,38.23
2018-07-19T12:18:39.910Z,38.03
2018-07-19T12:19:48.823Z,37.95
2018-07-19T12:20:57.480Z,37.56
2018-07-19T12:22:06.136Z,38.15
2018-07-19T12:23:15.050Z,38.05
2018-07-19T12:24:23.700Z,36.79
2018-07-19T12:25:32.360Z,37.27
2018-07-19T12:26:41.016Z,37.66
2018-07-19T12:27:49.677Z,37.48
2018-07-19T12:28:58.330Z,37.87
2018-07-19T12:30:06.985Z,37.29
2018-07-19T12:31:15.646Z,36.71
2018-07-19T12:32:24.298Z,36.02
2018-07-19T12:33:32.955Z,36.61
2018-07-19T12:34:41.610Z,37.19
2018-07-19T12:35:50.265Z,36.79
2018-07-19T12:36:59.581Z,36.51
2018-07-19T12:38:08.240Z,37.1
2018-07-19T12:39:16.893Z,39.14
2018-07-19T12:40:25.545Z,38.26
2018-07-19T12:41:34.201Z,37.19
2018-07-19T12:42:42.934Z,37.1
2018-07-19T12:43:51.803Z,35.75
2018-07-19T12:45:00.460Z,35.65
2018-07-19T12:46:09.112Z,35.36
2018-07-19T12:47:17.776Z,35.26
2018-07-19T12:48:26.432Z,35.94
2018-07-19T12:49:35.360Z,35.75
2018-07-19T12:50:44.017Z,34.78
2018-07-19T12:51:52.677Z,34.58
2018-07-19T12:53:01.336Z,34.88
2018-07-19T12:54:09.992Z,34.48
2018-07-19T12:55:18.646Z,36.63
2018-07-19T12:56:27.297Z,36.63
2018-07-19T12:57:35.957Z,36.82
2018-07-19T12:58:44.876Z,36.33
2018-07-19T12:59:53.531Z,36.72
2018-07-19T13:01:02.447Z,36.63
2018-07-19T13:02:11.376Z,35.06
2018-07-19T13:03:20.025Z,35.85
2018-07-19T13:04:28.684Z,35.55
2018-07-19T13:05:37.335Z,36.14
2018-07-19T13:06:45.992Z,35.83
2018-07-19T13:07:54.647Z,36.9
2018-07-19T13:09:03.307Z,37.48
2018-07-19T13:10:11.968Z,36.61
2018-07-19T13:11:20.612Z,36.22
2018-07-19T13:12:29.285Z,36.12
2018-07-19T13:13:38.193Z,36.41
2018-07-19T13:14:46.857Z,36.12
2018-07-19T13:15:55.504Z,36.14
2018-07-19T13:17:04.437Z,36.71
2018-07-19T13:18:13.089Z,35.93
2018-07-19T13:19:21.754Z,36.51
2018-07-19T13:20:30.662Z,36.3
2018-07-19T13:21:39.320Z,36.79
2018-07-19T13:22:47.969Z,37.66
2018-07-19T13:23:56.636Z,38.23
2018-07-19T13:25:05.577Z,42.02
2018-07-19T13:26:14.232Z,40.27
2018-07-19T13:27:22.884Z,40.47
2018-07-19T13:28:32.062Z,39.29
2018-07-19T13:29:40.729Z,40.34
2018-07-19T13:30:49.388Z,42.39
2018-07-19T13:31:58.039Z,43.16
2018-07-19T13:33:06.686Z,43.26
2018-07-19T13:34:15.351Z,41.1
2018-07-19T13:35:23.997Z,39.16
2018-07-19T13:36:32.738Z,39.36
2018-07-19T13:37:41.308Z,41.2
2018-07-19T13:38:49.972Z,43.05
2018-07-19T13:39:58.627Z,42.76
2018-07-19T13:41:07.288Z,41.88
2018-07-19T13:42:15.939Z,41.2
2018-07-19T13:43:24.600Z,40.42
2018-07-19T13:44:33.258Z,40.72
2018-07-19T13:45:42.178Z,40.81
2018-07-19T13:46:51.099Z,39.84
2018-07-19T13:48:00.004Z,40.72
2018-07-19T13:49:08.663Z,43.24
2018-07-19T13:50:17.313Z,43.44
2018-07-19T13:51:25.977Z,42.25
2018-07-19T13:52:34.623Z,41.18
2018-07-19T13:53:43.281Z,40.67
2018-07-19T13:54:51.932Z,40.67
2018-07-19T13:56:00.595Z,43.01
2018-07-19T13:57:09.242Z,42.61
2018-07-19T13:58:17.903Z,42.52
2018-07-19T13:59:26.552Z,44.15
2018-07-19T14:00:35.216Z,43.59
2018-07-19T14:01:43.867Z,43.18
2018-07-19T14:02:52.548Z,42.21
2018-07-19T14:04:01.713Z,42.02
2018-07-19T14:05:10.353Z,42.6
2018-07-19T14:06:19.016Z,45.21
2018-07-19T14:07:27.666Z,44.15
2018-07-19T14:08:36.317Z,47.55
2018-07-19T14:09:44.980Z,48.32
2018-07-19T14:10:53.632Z,48.42
2018-07-19T14:12:02.288Z,49
2018-07-19T14:13:10.988Z,47.55
2018-07-19T14:14:19.602Z,45.31
2018-07-19T14:15:28.248Z,48.03
2018-07-19T14:16:36.903Z,48.9
2018-07-19T14:17:45.820Z,47.45
2018-07-19T14:18:54.512Z,45.8
2018-07-19T14:20:03.144Z,44.44
2018-07-19T14:21:11.785Z,43.95
2018-07-19T14:22:20.440Z,44.92
2018-07-19T14:23:29.093Z,42.52
2018-07-19T14:24:37.757Z,41.06
2018-07-19T14:25:46.408Z,41.26
2018-07-19T14:26:55.075Z,40.48
2018-07-19T14:28:03.715Z,40.67
2018-07-19T14:29:12.379Z,41.26
2018-07-19T14:30:21.032Z,41.74
2018-07-19T14:31:29.954Z,42.13
2018-07-19T14:32:39.132Z,41.45
2018-07-19T14:33:47.792Z,41.45
2018-07-19T14:34:56.443Z,41.55
2018-07-19T14:36:05.101Z,42.61
2018-07-19T14:37:13.750Z,42.52
2018-07-19T14:38:22.405Z,42.81
2018-07-19T14:39:31.329Z,44.34
2018-07-19T14:40:39.988Z,42.61
2018-07-19T14:41:48.639Z,41.55
2018-07-19T14:42:57.283Z,41.94
2018-07-19T14:44:05.942Z,42.23
2018-07-19T14:45:14.590Z,42.03
2018-07-19T14:46:23.251Z,43.2
2018-07-19T14:47:31.895Z,41.84
2018-07-19T14:48:40.556Z,42.13